sensor_id;sensor_type;location;lat;lon;timestamp;P1;durP1;ratioP1;P2;durP2;ratioP2
58896;SDS011;44677;52.378;10.400;2022-12-11T00:00:40;19.70;;;11.00;;
58896;SDS011;44677;52.378;10.400;2022-12-11T00:03:06;21.10;;;11.90;;
58896;SDS011;44677;52.378;10.400;2022-12-11T00:05:32;21.90;;;10.70;;
58896;SDS011;44677;52.378;10.400;2022-12-11T00:07:57;16.60;;;10.00;;
58896;SDS011;44677;52.378;10.400;2022-12-11T00:10:23;16.70;;;10.10;;
58896;SDS011;44677;52.378;10.400;2022-12-11T00:12:48;18.20;;;10.30;;
58896;SDS011;44677;52.378;10.400;2022-12-11T00:15:14;19.30;;;10.90;;
58896;SDS011;44677;52.378;10.400;2022-12-11T00:17:39;16.70;;;10.40;;
58896;SDS011;44677;52.378;10.400;2022-12-11T00:20:05;18.30;;;10.70;;
58896;SDS011;44677;52.378;10.400;2022-12-11T00:22:32;18.70;;;10.40;;
58896;SDS011;44677;52.378;10.400;2022-12-11T00:24:58;16.30;;;10.90;;
58896;SDS011;44677;52.378;10.400;2022-12-11T00:27:23;17.20;;;10.90;;
58896;SDS011;44677;52.378;10.400;2022-12-11T00:29:49;15.60;;;9.40;;
58896;SDS011;44677;52.378;10.400;2022-12-11T00:32:14;17.50;;;10.20;;
58896;SDS011;44677;52.378;10.400;2022-12-11T00:34:39;16.20;;;9.40;;
58896;SDS011;44677;52.378;10.400;2022-12-11T00:37:05;17.30;;;9.90;;
58896;SDS011;44677;52.378;10.400;2022-12-11T00:39:30;17.00;;;10.50;;
58896;SDS011;44677;52.378;10.400;2022-12-11T00:41:56;16.10;;;10.20;;
58896;SDS011;44677;52.378;10.400;2022-12-11T00:44:22;20.80;;;11.40;;
58896;SDS011;44677;52.378;10.400;2022-12-11T00:46:48;19.00;;;10.30;;
58896;SDS011;44677;52.378;10.400;2022-12-11T00:49:13;17.50;;;9.80;;
58896;SDS011;44677;52.378;10.400;2022-12-11T00:51:39;20.20;;;10.10;;
58896;SDS011;44677;52.378;10.400;2022-12-11T00:54:04;16.90;;;10.20;;
58896;SDS011;44677;52.378;10.400;2022-12-11T00:56:32;16.70;;;9.60;;
58896;SDS011;44677;52.378;10.400;2022-12-11T00:58:58;17.10;;;9.70;;
58896;SDS011;44677;52.378;10.400;2022-12-11T01:01:24;14.40;;;9.00;;
58896;SDS011;44677;52.378;10.400;2022-12-11T01:03:50;15.10;;;9.20;;
58896;SDS011;44677;52.378;10.400;2022-12-11T01:06:17;14.40;;;9.20;;
58896;SDS011;44677;52.378;10.400;2022-12-11T01:08:44;18.70;;;10.40;;
58896;SDS011;44677;52.378;10.400;2022-12-11T01:11:11;18.70;;;11.00;;
58896;SDS011;44677;52.378;10.400;2022-12-11T01:13:38;14.60;;;9.20;;
58896;SDS011;44677;52.378;10.400;2022-12-11T01:16:05;20.20;;;11.30;;
58896;SDS011;44677;52.378;10.400;2022-12-11T01:18:31;14.20;;;9.00;;
58896;SDS011;44677;52.378;10.400;2022-12-11T01:20:57;12.10;;;8.00;;
58896;SDS011;44677;52.378;10.400;2022-12-11T01:23:22;18.50;;;10.10;;
58896;SDS011;44677;52.378;10.400;2022-12-11T01:25:48;17.20;;;9.80;;
58896;SDS011;44677;52.378;10.400;2022-12-11T01:28:13;15.10;;;9.40;;
58896;SDS011;44677;52.378;10.400;2022-12-11T01:30:40;18.20;;;9.80;;
58896;SDS011;44677;52.378;10.400;2022-12-11T01:33:07;17.50;;;9.10;;
58896;SDS011;44677;52.378;10.400;2022-12-11T01:35:33;16.80;;;10.00;;
58896;SDS011;44677;52.378;10.400;2022-12-11T01:37:58;15.10;;;9.40;;
58896;SDS011;44677;52.378;10.400;2022-12-11T01:40:24;15.40;;;8.80;;
58896;SDS011;44677;52.378;10.400;2022-12-11T01:42:49;15.20;;;8.80;;
58896;SDS011;44677;52.378;10.400;2022-12-11T01:47:52;16.40;;;10.20;;
58896;SDS011;44677;52.378;10.400;2022-12-11T01:50:21;17.80;;;10.60;;
58896;SDS011;44677;52.378;10.400;2022-12-11T01:52:46;15.30;;;9.60;;
58896;SDS011;44677;52.378;10.400;2022-12-11T01:55:13;16.10;;;8.90;;
58896;SDS011;44677;52.378;10.400;2022-12-11T01:57:40;15.20;;;9.50;;
58896;SDS011;44677;52.378;10.400;2022-12-11T02:00:08;15.90;;;8.50;;
58896;SDS011;44677;52.378;10.400;2022-12-11T02:02:38;15.60;;;10.00;;
58896;SDS011;44677;52.378;10.400;2022-12-11T02:05:04;19.10;;;10.90;;
58896;SDS011;44677;52.378;10.400;2022-12-11T02:07:33;15.30;;;9.80;;
58896;SDS011;44677;52.378;10.400;2022-12-11T02:10:05;15.10;;;9.50;;
58896;SDS011;44677;52.378;10.400;2022-12-11T02:17:51;17.60;;;10.10;;
58896;SDS011;44677;52.378;10.400;2022-12-11T02:20:22;17.20;;;10.20;;
58896;SDS011;44677;52.378;10.400;2022-12-11T02:22:58;19.60;;;9.90;;
58896;SDS011;44677;52.378;10.400;2022-12-11T02:28:19;15.50;;;10.30;;
58896;SDS011;44677;52.378;10.400;2022-12-11T02:31:05;16.00;;;9.40;;
58896;SDS011;44677;52.378;10.400;2022-12-11T02:33:40;16.70;;;9.80;;
58896;SDS011;44677;52.378;10.400;2022-12-11T02:36:08;18.60;;;10.00;;
58896;SDS011;44677;52.378;10.400;2022-12-11T02:38:35;19.10;;;9.70;;
58896;SDS011;44677;52.378;10.400;2022-12-11T02:41:04;14.40;;;9.50;;
58896;SDS011;44677;52.378;10.400;2022-12-11T02:43:32;16.60;;;9.40;;
58896;SDS011;44677;52.378;10.400;2022-12-11T02:45:58;17.80;;;10.70;;
58896;SDS011;44677;52.378;10.400;2022-12-11T02:48:24;17.30;;;9.80;;
58896;SDS011;44677;52.378;10.400;2022-12-11T02:50:51;15.90;;;9.50;;
58896;SDS011;44677;52.378;10.400;2022-12-11T02:53:19;14.20;;;8.50;;
58896;SDS011;44677;52.378;10.400;2022-12-11T02:55:46;18.00;;;9.60;;
58896;SDS011;44677;52.378;10.400;2022-12-11T02:58:18;18.00;;;10.30;;
58896;SDS011;44677;52.378;10.400;2022-12-11T03:00:46;15.50;;;9.20;;
58896;SDS011;44677;52.378;10.400;2022-12-11T03:03:12;17.90;;;8.80;;
58896;SDS011;44677;52.378;10.400;2022-12-11T03:05:37;19.70;;;12.20;;
58896;SDS011;44677;52.378;10.400;2022-12-11T03:08:03;21.30;;;10.90;;
58896;SDS011;44677;52.378;10.400;2022-12-11T03:10:29;17.10;;;9.90;;
58896;SDS011;44677;52.378;10.400;2022-12-11T03:12:54;20.50;;;11.70;;
58896;SDS011;44677;52.378;10.400;2022-12-11T03:15:22;17.40;;;10.00;;
58896;SDS011;44677;52.378;10.400;2022-12-11T03:18:00;17.90;;;10.30;;
58896;SDS011;44677;52.378;10.400;2022-12-11T03:20:38;18.00;;;10.40;;
58896;SDS011;44677;52.378;10.400;2022-12-11T03:23:27;18.70;;;10.70;;
58896;SDS011;44677;52.378;10.400;2022-12-11T03:26:01;20.40;;;10.40;;
58896;SDS011;44677;52.378;10.400;2022-12-11T03:30:54;20.20;;;10.80;;
58896;SDS011;44677;52.378;10.400;2022-12-11T03:33:22;19.60;;;10.30;;
58896;SDS011;44677;52.378;10.400;2022-12-11T03:35:52;16.80;;;9.90;;
58896;SDS011;44677;52.378;10.400;2022-12-11T03:39:04;18.90;;;10.60;;
58896;SDS011;44677;52.378;10.400;2022-12-11T03:41:13;17.30;;;9.50;;
58896;SDS011;44677;52.378;10.400;2022-12-11T03:43:40;16.30;;;9.30;;
58896;SDS011;44677;52.378;10.400;2022-12-11T03:46:06;14.60;;;8.60;;
58896;SDS011;44677;52.378;10.400;2022-12-11T03:48:34;16.90;;;8.70;;
58896;SDS011;44677;52.378;10.400;2022-12-11T03:51:03;19.50;;;11.10;;
58896;SDS011;44677;52.378;10.400;2022-12-11T03:53:30;16.90;;;9.30;;
58896;SDS011;44677;52.378;10.400;2022-12-11T03:56:00;15.60;;;8.90;;
58896;SDS011;44677;52.378;10.400;2022-12-11T03:58:27;17.00;;;10.20;;
58896;SDS011;44677;52.378;10.400;2022-12-11T04:00:53;16.20;;;8.90;;
58896;SDS011;44677;52.378;10.400;2022-12-11T04:03:18;16.60;;;8.50;;
58896;SDS011;44677;52.378;10.400;2022-12-11T04:05:45;17.00;;;9.30;;
58896;SDS011;44677;52.378;10.400;2022-12-11T04:08:18;16.30;;;9.70;;
58896;SDS011;44677;52.378;10.400;2022-12-11T04:10:47;16.60;;;9.10;;
58896;SDS011;44677;52.378;10.400;2022-12-11T04:15:59;19.00;;;9.10;;
58896;SDS011;44677;52.378;10.400;2022-12-11T04:18:24;18.30;;;10.20;;
58896;SDS011;44677;52.378;10.400;2022-12-11T04:21:08;16.30;;;9.30;;
58896;SDS011;44677;52.378;10.400;2022-12-11T04:23:52;17.40;;;9.40;;
58896;SDS011;44677;52.378;10.400;2022-12-11T04:26:36;17.20;;;9.00;;
58896;SDS011;44677;52.378;10.400;2022-12-11T04:29:02;15.10;;;8.50;;
58896;SDS011;44677;52.378;10.400;2022-12-11T04:31:27;16.40;;;9.00;;
58896;SDS011;44677;52.378;10.400;2022-12-11T04:33:54;17.50;;;10.00;;
58896;SDS011;44677;52.378;10.400;2022-12-11T04:36:19;17.40;;;9.00;;
58896;SDS011;44677;52.378;10.400;2022-12-11T04:38:44;15.80;;;9.60;;
58896;SDS011;44677;52.378;10.400;2022-12-11T04:41:11;15.70;;;9.40;;
58896;SDS011;44677;52.378;10.400;2022-12-11T04:43:37;16.90;;;10.20;;
58896;SDS011;44677;52.378;10.400;2022-12-11T04:46:04;17.50;;;9.60;;
58896;SDS011;44677;52.378;10.400;2022-12-11T04:48:38;16.30;;;9.60;;
58896;SDS011;44677;52.378;10.400;2022-12-11T04:51:04;15.30;;;8.30;;
58896;SDS011;44677;52.378;10.400;2022-12-11T04:53:30;15.00;;;9.40;;
58896;SDS011;44677;52.378;10.400;2022-12-11T04:55:56;16.70;;;9.30;;
58896;SDS011;44677;52.378;10.400;2022-12-11T04:58:22;18.10;;;10.00;;
58896;SDS011;44677;52.378;10.400;2022-12-11T05:00:48;16.30;;;9.50;;
58896;SDS011;44677;52.378;10.400;2022-12-11T05:03:13;12.50;;;6.60;;
58896;SDS011;44677;52.378;10.400;2022-12-11T05:05:39;16.30;;;9.40;;
58896;SDS011;44677;52.378;10.400;2022-12-11T05:08:04;18.80;;;9.30;;
58896;SDS011;44677;52.378;10.400;2022-12-11T05:10:30;17.40;;;9.60;;
58896;SDS011;44677;52.378;10.400;2022-12-11T05:12:55;19.60;;;10.00;;
58896;SDS011;44677;52.378;10.400;2022-12-11T05:15:21;12.30;;;7.60;;
58896;SDS011;44677;52.378;10.400;2022-12-11T05:17:47;13.80;;;7.80;;
58896;SDS011;44677;52.378;10.400;2022-12-11T05:20:12;14.50;;;7.80;;
58896;SDS011;44677;52.378;10.400;2022-12-11T05:22:37;15.80;;;8.60;;
58896;SDS011;44677;52.378;10.400;2022-12-11T05:25:03;13.60;;;7.70;;
58896;SDS011;44677;52.378;10.400;2022-12-11T05:27:30;18.50;;;10.00;;
58896;SDS011;44677;52.378;10.400;2022-12-11T05:29:55;16.50;;;9.90;;
58896;SDS011;44677;52.378;10.400;2022-12-11T05:32:21;15.70;;;8.90;;
58896;SDS011;44677;52.378;10.400;2022-12-11T05:34:46;16.20;;;9.30;;
58896;SDS011;44677;52.378;10.400;2022-12-11T05:37:11;17.10;;;9.60;;
58896;SDS011;44677;52.378;10.400;2022-12-11T05:39:37;15.50;;;8.80;;
58896;SDS011;44677;52.378;10.400;2022-12-11T05:42:03;19.00;;;10.10;;
58896;SDS011;44677;52.378;10.400;2022-12-11T05:44:28;19.80;;;9.40;;
58896;SDS011;44677;52.378;10.400;2022-12-11T05:46:53;17.50;;;10.80;;
58896;SDS011;44677;52.378;10.400;2022-12-11T05:49:19;18.30;;;10.50;;
58896;SDS011;44677;52.378;10.400;2022-12-11T05:51:45;19.10;;;10.00;;
58896;SDS011;44677;52.378;10.400;2022-12-11T05:54:10;18.80;;;10.30;;
58896;SDS011;44677;52.378;10.400;2022-12-11T05:56:36;18.30;;;10.60;;
58896;SDS011;44677;52.378;10.400;2022-12-11T05:59:03;16.60;;;9.20;;
58896;SDS011;44677;52.378;10.400;2022-12-11T06:01:31;13.80;;;8.90;;
58896;SDS011;44677;52.378;10.400;2022-12-11T06:03:58;18.30;;;12.20;;
58896;SDS011;44677;52.378;10.400;2022-12-11T06:06:24;20.10;;;12.20;;
58896;SDS011;44677;52.378;10.400;2022-12-11T06:08:51;17.40;;;10.00;;
58896;SDS011;44677;52.378;10.400;2022-12-11T06:11:18;18.60;;;9.90;;
58896;SDS011;44677;52.378;10.400;2022-12-11T06:13:45;20.70;;;11.90;;
58896;SDS011;44677;52.378;10.400;2022-12-11T06:16:10;27.40;;;14.50;;
58896;SDS011;44677;52.378;10.400;2022-12-11T06:18:37;27.40;;;13.40;;
58896;SDS011;44677;52.378;10.400;2022-12-11T06:21:17;22.40;;;10.70;;
58896;SDS011;44677;52.378;10.400;2022-12-11T06:23:45;23.10;;;11.90;;
58896;SDS011;44677;52.378;10.400;2022-12-11T06:26:12;27.70;;;13.00;;
58896;SDS011;44677;52.378;10.400;2022-12-11T06:28:38;21.90;;;12.80;;
58896;SDS011;44677;52.378;10.400;2022-12-11T06:31:04;22.40;;;12.90;;
58896;SDS011;44677;52.378;10.400;2022-12-11T06:33:30;25.40;;;13.50;;
58896;SDS011;44677;52.378;10.400;2022-12-11T06:35:56;25.50;;;13.10;;
58896;SDS011;44677;52.378;10.400;2022-12-11T06:38:26;19.70;;;10.70;;
58896;SDS011;44677;52.378;10.400;2022-12-11T06:40:55;17.50;;;10.20;;
58896;SDS011;44677;52.378;10.400;2022-12-11T06:43:21;17.80;;;9.80;;
58896;SDS011;44677;52.378;10.400;2022-12-11T06:45:47;15.30;;;10.30;;
58896;SDS011;44677;52.378;10.400;2022-12-11T06:48:12;21.50;;;12.60;;
58896;SDS011;44677;52.378;10.400;2022-12-11T06:50:37;16.20;;;9.90;;
58896;SDS011;44677;52.378;10.400;2022-12-11T06:53:03;16.30;;;8.90;;
58896;SDS011;44677;52.378;10.400;2022-12-11T06:55:28;19.10;;;9.30;;
58896;SDS011;44677;52.378;10.400;2022-12-11T06:57:54;16.90;;;8.20;;
58896;SDS011;44677;52.378;10.400;2022-12-11T07:00:19;17.00;;;8.60;;
58896;SDS011;44677;52.378;10.400;2022-12-11T07:02:45;17.60;;;7.90;;
58896;SDS011;44677;52.378;10.400;2022-12-11T07:05:10;14.90;;;7.50;;
58896;SDS011;44677;52.378;10.400;2022-12-11T07:07:36;18.00;;;9.10;;
58896;SDS011;44677;52.378;10.400;2022-12-11T07:10:01;18.40;;;9.20;;
58896;SDS011;44677;52.378;10.400;2022-12-11T07:12:27;18.70;;;10.00;;
58896;SDS011;44677;52.378;10.400;2022-12-11T07:14:53;15.90;;;8.50;;
58896;SDS011;44677;52.378;10.400;2022-12-11T07:17:18;15.20;;;8.40;;
58896;SDS011;44677;52.378;10.400;2022-12-11T07:19:43;17.50;;;8.90;;
58896;SDS011;44677;52.378;10.400;2022-12-11T07:22:09;14.30;;;8.60;;
58896;SDS011;44677;52.378;10.400;2022-12-11T07:24:35;14.10;;;8.40;;
58896;SDS011;44677;52.378;10.400;2022-12-11T07:27:00;16.30;;;8.50;;
58896;SDS011;44677;52.378;10.400;2022-12-11T07:29:25;14.60;;;7.80;;
58896;SDS011;44677;52.378;10.400;2022-12-11T07:31:51;16.00;;;8.90;;
58896;SDS011;44677;52.378;10.400;2022-12-11T07:34:16;17.50;;;9.80;;
58896;SDS011;44677;52.378;10.400;2022-12-11T07:36:42;16.90;;;8.60;;
58896;SDS011;44677;52.378;10.400;2022-12-11T07:39:08;15.80;;;9.00;;
58896;SDS011;44677;52.378;10.400;2022-12-11T07:41:35;17.50;;;9.30;;
58896;SDS011;44677;52.378;10.400;2022-12-11T07:44:02;19.90;;;9.40;;
58896;SDS011;44677;52.378;10.400;2022-12-11T07:46:28;18.20;;;9.00;;
58896;SDS011;44677;52.378;10.400;2022-12-11T07:48:55;17.50;;;9.20;;
58896;SDS011;44677;52.378;10.400;2022-12-11T07:51:21;16.60;;;9.00;;
58896;SDS011;44677;52.378;10.400;2022-12-11T07:53:50;16.30;;;8.60;;
58896;SDS011;44677;52.378;10.400;2022-12-11T07:56:17;19.00;;;9.50;;
58896;SDS011;44677;52.378;10.400;2022-12-11T07:58:44;17.70;;;8.50;;
58896;SDS011;44677;52.378;10.400;2022-12-11T08:01:13;15.20;;;8.40;;
58896;SDS011;44677;52.378;10.400;2022-12-11T08:03:40;15.80;;;8.20;;
58896;SDS011;44677;52.378;10.400;2022-12-11T08:06:06;17.00;;;9.00;;
58896;SDS011;44677;52.378;10.400;2022-12-11T08:08:32;18.10;;;8.40;;
58896;SDS011;44677;52.378;10.400;2022-12-11T08:11:02;22.50;;;11.40;;
58896;SDS011;44677;52.378;10.400;2022-12-11T08:13:28;18.60;;;9.40;;
58896;SDS011;44677;52.378;10.400;2022-12-11T08:15:53;14.60;;;8.10;;
58896;SDS011;44677;52.378;10.400;2022-12-11T08:18:19;20.50;;;10.30;;
58896;SDS011;44677;52.378;10.400;2022-12-11T08:20:44;21.40;;;10.60;;
58896;SDS011;44677;52.378;10.400;2022-12-11T08:23:10;19.90;;;10.80;;
58896;SDS011;44677;52.378;10.400;2022-12-11T08:25:35;25.10;;;12.70;;
58896;SDS011;44677;52.378;10.400;2022-12-11T08:28:00;20.00;;;10.10;;
58896;SDS011;44677;52.378;10.400;2022-12-11T08:30:26;16.80;;;8.40;;
58896;SDS011;44677;52.378;10.400;2022-12-11T08:32:52;18.30;;;8.80;;
58896;SDS011;44677;52.378;10.400;2022-12-11T08:35:17;17.20;;;9.10;;
58896;SDS011;44677;52.378;10.400;2022-12-11T08:37:42;18.30;;;9.70;;
58896;SDS011;44677;52.378;10.400;2022-12-11T08:40:08;17.90;;;9.80;;
58896;SDS011;44677;52.378;10.400;2022-12-11T08:42:35;16.90;;;9.40;;
58896;SDS011;44677;52.378;10.400;2022-12-11T08:45:00;16.80;;;9.60;;
58896;SDS011;44677;52.378;10.400;2022-12-11T08:47:25;20.00;;;10.20;;
58896;SDS011;44677;52.378;10.400;2022-12-11T08:49:51;18.20;;;10.00;;
58896;SDS011;44677;52.378;10.400;2022-12-11T08:52:16;18.50;;;10.30;;
58896;SDS011;44677;52.378;10.400;2022-12-11T08:54:42;15.90;;;8.90;;
58896;SDS011;44677;52.378;10.400;2022-12-11T08:57:07;17.90;;;9.10;;
58896;SDS011;44677;52.378;10.400;2022-12-11T08:59:32;17.40;;;8.80;;
58896;SDS011;44677;52.378;10.400;2022-12-11T09:01:58;16.10;;;8.80;;
58896;SDS011;44677;52.378;10.400;2022-12-11T09:04:23;16.10;;;8.70;;
58896;SDS011;44677;52.378;10.400;2022-12-11T09:06:49;17.00;;;8.70;;
58896;SDS011;44677;52.378;10.400;2022-12-11T09:09:14;17.00;;;8.40;;
58896;SDS011;44677;52.378;10.400;2022-12-11T09:11:39;15.10;;;9.50;;
58896;SDS011;44677;52.378;10.400;2022-12-11T09:14:05;13.60;;;8.80;;
58896;SDS011;44677;52.378;10.400;2022-12-11T09:16:31;13.00;;;8.50;;
58896;SDS011;44677;52.378;10.400;2022-12-11T09:18:58;15.20;;;8.80;;
58896;SDS011;44677;52.378;10.400;2022-12-11T09:21:25;18.30;;;9.60;;
58896;SDS011;44677;52.378;10.400;2022-12-11T09:23:52;14.20;;;8.80;;
58896;SDS011;44677;52.378;10.400;2022-12-11T09:26:19;15.50;;;9.10;;
58896;SDS011;44677;52.378;10.400;2022-12-11T09:28:45;15.30;;;8.80;;
58896;SDS011;44677;52.378;10.400;2022-12-11T09:31:12;15.40;;;8.30;;
58896;SDS011;44677;52.378;10.400;2022-12-11T09:33:42;15.90;;;9.00;;
58896;SDS011;44677;52.378;10.400;2022-12-11T09:36:08;15.60;;;8.80;;
58896;SDS011;44677;52.378;10.400;2022-12-11T09:38:34;15.50;;;9.10;;
58896;SDS011;44677;52.378;10.400;2022-12-11T09:41:00;13.50;;;8.00;;
58896;SDS011;44677;52.378;10.400;2022-12-11T09:43:37;15.20;;;8.40;;
58896;SDS011;44677;52.378;10.400;2022-12-11T09:46:09;14.20;;;8.60;;
58896;SDS011;44677;52.378;10.400;2022-12-11T09:48:35;12.60;;;7.60;;
58896;SDS011;44677;52.378;10.400;2022-12-11T09:51:02;13.00;;;7.90;;
58896;SDS011;44677;52.378;10.400;2022-12-11T09:53:32;18.10;;;9.10;;
58896;SDS011;44677;52.378;10.400;2022-12-11T09:56:12;18.80;;;8.90;;
58896;SDS011;44677;52.378;10.400;2022-12-11T09:59:19;15.60;;;8.20;;
58896;SDS011;44677;52.378;10.400;2022-12-11T10:02:00;15.20;;;8.80;;
58896;SDS011;44677;52.378;10.400;2022-12-11T10:04:54;12.60;;;8.20;;
58896;SDS011;44677;52.378;10.400;2022-12-11T10:07:55;13.70;;;8.20;;
58896;SDS011;44677;52.378;10.400;2022-12-11T10:16:08;10.40;;;6.80;;
58896;SDS011;44677;52.378;10.400;2022-12-11T10:18:37;14.60;;;8.30;;
58896;SDS011;44677;52.378;10.400;2022-12-11T10:21:03;14.40;;;9.40;;
58896;SDS011;44677;52.378;10.400;2022-12-11T10:23:31;13.40;;;8.20;;
58896;SDS011;44677;52.378;10.400;2022-12-11T10:26:09;14.90;;;8.70;;
58896;SDS011;44677;52.378;10.400;2022-12-11T10:28:36;14.70;;;8.80;;
58896;SDS011;44677;52.378;10.400;2022-12-11T10:31:11;14.90;;;9.00;;
58896;SDS011;44677;52.378;10.400;2022-12-11T10:33:57;16.10;;;9.90;;
58896;SDS011;44677;52.378;10.400;2022-12-11T10:36:32;15.50;;;9.00;;
58896;SDS011;44677;52.378;10.400;2022-12-11T10:38:59;14.10;;;9.30;;
58896;SDS011;44677;52.378;10.400;2022-12-11T10:41:38;12.60;;;8.40;;
58896;SDS011;44677;52.378;10.400;2022-12-11T10:44:19;11.90;;;8.10;;
58896;SDS011;44677;52.378;10.400;2022-12-11T10:47:11;17.80;;;9.40;;
58896;SDS011;44677;52.378;10.400;2022-12-11T10:49:50;11.20;;;7.10;;
58896;SDS011;44677;52.378;10.400;2022-12-11T10:52:30;11.20;;;7.70;;
58896;SDS011;44677;52.378;10.400;2022-12-11T10:57:33;12.00;;;7.70;;
58896;SDS011;44677;52.378;10.400;2022-12-11T10:59:59;15.40;;;8.90;;
58896;SDS011;44677;52.378;10.400;2022-12-11T11:02:35;12.80;;;8.00;;
58896;SDS011;44677;52.378;10.400;2022-12-11T11:05:16;14.90;;;7.90;;
58896;SDS011;44677;52.378;10.400;2022-12-11T11:08:05;12.10;;;6.80;;
58896;SDS011;44677;52.378;10.400;2022-12-11T11:13:22;12.10;;;7.80;;
58896;SDS011;44677;52.378;10.400;2022-12-11T11:15:49;12.10;;;7.40;;
58896;SDS011;44677;52.378;10.400;2022-12-11T11:18:23;13.60;;;8.40;;
58896;SDS011;44677;52.378;10.400;2022-12-11T11:20:51;23.90;;;11.90;;
58896;SDS011;44677;52.378;10.400;2022-12-11T11:23:17;14.60;;;8.70;;
58896;SDS011;44677;52.378;10.400;2022-12-11T11:25:54;14.00;;;8.50;;
58896;SDS011;44677;52.378;10.400;2022-12-11T11:28:33;30.30;;;13.60;;
58896;SDS011;44677;52.378;10.400;2022-12-11T11:31:13;13.50;;;8.80;;
58896;SDS011;44677;52.378;10.400;2022-12-11T11:36:23;15.30;;;8.90;;
58896;SDS011;44677;52.378;10.400;2022-12-11T11:44:38;16.30;;;8.20;;
58896;SDS011;44677;52.378;10.400;2022-12-11T11:47:16;15.10;;;9.00;;
58896;SDS011;44677;52.378;10.400;2022-12-11T11:52:32;15.60;;;8.70;;
58896;SDS011;44677;52.378;10.400;2022-12-11T11:55:18;17.30;;;10.00;;
58896;SDS011;44677;52.378;10.400;2022-12-11T11:57:51;15.80;;;9.30;;
58896;SDS011;44677;52.378;10.400;2022-12-11T12:00:23;15.40;;;9.10;;
58896;SDS011;44677;52.378;10.400;2022-12-11T12:02:54;15.10;;;9.30;;
58896;SDS011;44677;52.378;10.400;2022-12-11T12:05:22;14.20;;;8.70;;
58896;SDS011;44677;52.378;10.400;2022-12-11T12:10:40;14.30;;;8.90;;
58896;SDS011;44677;52.378;10.400;2022-12-11T12:15:49;15.70;;;8.50;;
58896;SDS011;44677;52.378;10.400;2022-12-11T12:23:34;19.20;;;11.10;;
58896;SDS011;44677;52.378;10.400;2022-12-11T12:28:56;16.30;;;9.50;;
58896;SDS011;44677;52.378;10.400;2022-12-11T12:48:33;13.60;;;8.20;;
58896;SDS011;44677;52.378;10.400;2022-12-11T12:50:58;15.70;;;8.80;;
58896;SDS011;44677;52.378;10.400;2022-12-11T12:53:25;16.30;;;8.90;;
58896;SDS011;44677;52.378;10.400;2022-12-11T12:55:52;15.20;;;9.30;;
58896;SDS011;44677;52.378;10.400;2022-12-11T12:58:29;29.80;;;16.90;;
58896;SDS011;44677;52.378;10.400;2022-12-11T13:01:20;17.20;;;10.90;;
58896;SDS011;44677;52.378;10.400;2022-12-11T13:06:26;15.80;;;8.20;;
58896;SDS011;44677;52.378;10.400;2022-12-11T13:09:15;14.10;;;8.00;;
58896;SDS011;44677;52.378;10.400;2022-12-11T13:14:28;13.60;;;7.80;;
58896;SDS011;44677;52.378;10.400;2022-12-11T13:19:45;14.70;;;7.90;;
58896;SDS011;44677;52.378;10.400;2022-12-11T13:30:05;13.10;;;8.10;;
58896;SDS011;44677;52.378;10.400;2022-12-11T13:32:32;14.30;;;8.00;;
58896;SDS011;44677;52.378;10.400;2022-12-11T13:34:58;14.40;;;8.60;;
58896;SDS011;44677;52.378;10.400;2022-12-11T13:39:54;11.90;;;7.60;;
58896;SDS011;44677;52.378;10.400;2022-12-11T13:42:33;14.20;;;9.00;;
58896;SDS011;44677;52.378;10.400;2022-12-11T13:45:02;14.10;;;7.70;;
58896;SDS011;44677;52.378;10.400;2022-12-11T13:47:28;13.60;;;8.50;;
58896;SDS011;44677;52.378;10.400;2022-12-11T13:49:59;14.00;;;8.70;;
58896;SDS011;44677;52.378;10.400;2022-12-11T13:52:36;13.80;;;8.20;;
58896;SDS011;44677;52.378;10.400;2022-12-11T13:55:13;14.10;;;8.30;;
58896;SDS011;44677;52.378;10.400;2022-12-11T13:57:45;13.20;;;8.40;;
58896;SDS011;44677;52.378;10.400;2022-12-11T14:00:21;14.70;;;8.40;;
58896;SDS011;44677;52.378;10.400;2022-12-11T14:02:52;13.70;;;8.10;;
58896;SDS011;44677;52.378;10.400;2022-12-11T14:05:20;14.10;;;8.50;;
58896;SDS011;44677;52.378;10.400;2022-12-11T14:07:50;15.40;;;8.40;;
58896;SDS011;44677;52.378;10.400;2022-12-11T14:10:21;15.00;;;9.10;;
58896;SDS011;44677;52.378;10.400;2022-12-11T14:12:53;14.80;;;9.00;;
58896;SDS011;44677;52.378;10.400;2022-12-11T14:15:21;13.60;;;9.00;;
58896;SDS011;44677;52.378;10.400;2022-12-11T14:17:47;15.30;;;8.90;;
58896;SDS011;44677;52.378;10.400;2022-12-11T14:20:20;12.50;;;8.50;;
58896;SDS011;44677;52.378;10.400;2022-12-11T14:22:47;14.30;;;8.60;;
58896;SDS011;44677;52.378;10.400;2022-12-11T14:25:23;14.70;;;9.20;;
58896;SDS011;44677;52.378;10.400;2022-12-11T14:27:51;15.10;;;9.50;;
58896;SDS011;44677;52.378;10.400;2022-12-11T14:30:22;13.50;;;9.10;;
58896;SDS011;44677;52.378;10.400;2022-12-11T14:32:54;13.40;;;8.70;;
58896;SDS011;44677;52.378;10.400;2022-12-11T14:37:55;13.80;;;9.00;;
58896;SDS011;44677;52.378;10.400;2022-12-11T14:40:23;18.50;;;10.90;;
58896;SDS011;44677;52.378;10.400;2022-12-11T14:42:54;17.00;;;10.20;;
58896;SDS011;44677;52.378;10.400;2022-12-11T14:47:56;16.30;;;10.30;;
58896;SDS011;44677;52.378;10.400;2022-12-11T14:50:26;16.30;;;9.30;;
58896;SDS011;44677;52.378;10.400;2022-12-11T14:53:00;16.60;;;10.20;;
58896;SDS011;44677;52.378;10.400;2022-12-11T14:55:31;15.90;;;10.10;;
58896;SDS011;44677;52.378;10.400;2022-12-11T14:58:10;19.70;;;10.40;;
58896;SDS011;44677;52.378;10.400;2022-12-11T15:00:37;16.70;;;10.20;;
58896;SDS011;44677;52.378;10.400;2022-12-11T15:03:06;16.60;;;10.10;;
58896;SDS011;44677;52.378;10.400;2022-12-11T15:05:52;16.60;;;10.20;;
58896;SDS011;44677;52.378;10.400;2022-12-11T15:08:20;19.20;;;11.00;;
58896;SDS011;44677;52.378;10.400;2022-12-11T15:11:01;21.40;;;11.70;;
58896;SDS011;44677;52.378;10.400;2022-12-11T15:13:31;15.20;;;10.70;;
58896;SDS011;44677;52.378;10.400;2022-12-11T15:15:57;20.00;;;11.80;;
58896;SDS011;44677;52.378;10.400;2022-12-11T15:18:34;19.50;;;11.70;;
58896;SDS011;44677;52.378;10.400;2022-12-11T15:21:02;20.10;;;12.30;;
58896;SDS011;44677;52.378;10.400;2022-12-11T15:23:31;19.90;;;11.40;;
58896;SDS011;44677;52.378;10.400;2022-12-11T15:25:59;22.40;;;12.50;;
58896;SDS011;44677;52.378;10.400;2022-12-11T15:28:33;26.20;;;12.80;;
58896;SDS011;44677;52.378;10.400;2022-12-11T15:31:22;27.90;;;12.70;;
58896;SDS011;44677;52.378;10.400;2022-12-11T15:33:52;45.50;;;17.30;;
58896;SDS011;44677;52.378;10.400;2022-12-11T15:36:25;49.90;;;20.00;;
58896;SDS011;44677;52.378;10.400;2022-12-11T15:38:56;52.80;;;21.00;;
58896;SDS011;44677;52.378;10.400;2022-12-11T15:41:22;50.50;;;21.70;;
58896;SDS011;44677;52.378;10.400;2022-12-11T15:43:49;56.20;;;22.20;;
58896;SDS011;44677;52.378;10.400;2022-12-11T15:46:16;47.90;;;20.30;;
58896;SDS011;44677;52.378;10.400;2022-12-11T15:48:41;39.30;;;16.40;;
58896;SDS011;44677;52.378;10.400;2022-12-11T15:51:07;36.90;;;16.90;;
58896;SDS011;44677;52.378;10.400;2022-12-11T15:53:33;38.40;;;17.10;;
58896;SDS011;44677;52.378;10.400;2022-12-11T15:55:58;46.00;;;19.00;;
58896;SDS011;44677;52.378;10.400;2022-12-11T15:58:24;43.50;;;18.00;;